createdAt,value
2023-03-03T00:01:25.528Z,6.20
2023-03-03T00:03:53.945Z,5.25
2023-03-03T00:06:22.590Z,5.50
2023-03-03T00:08:50.792Z,8.32
2023-03-03T00:11:19.267Z,7.03
2023-03-03T00:13:49.982Z,8.05
2023-03-03T00:16:25.774Z,6.40
2023-03-03T00:18:55.566Z,5.50
2023-03-03T00:21:30.505Z,5.50
2023-03-03T00:24:16.435Z,6.10
2023-03-03T00:26:46.711Z,7.07
2023-03-03T00:29:35.864Z,5.60
2023-03-03T00:32:29.151Z,9.45
2023-03-03T00:35:02.848Z,9.35
2023-03-03T00:37:33.584Z,6.25
2023-03-03T00:40:17.562Z,6.30
2023-03-03T00:42:50.281Z,7.10
2023-03-03T00:45:28.507Z,6.75
2023-03-03T00:47:59.358Z,8.95
2023-03-03T00:50:33.591Z,7.88
2023-03-03T00:53:05.638Z,7.70
2023-03-03T00:55:35.709Z,7.10
2023-03-03T00:58:04.677Z,6.32
2023-03-03T01:00:39.568Z,8.93
2023-03-03T01:03:14.632Z,7.82
2023-03-03T01:05:43.704Z,7.25
2023-03-03T01:08:12.016Z,8.05
2023-03-03T01:10:44.056Z,7.45
2023-03-03T01:13:13.156Z,7.55
2023-03-03T01:15:42.007Z,7.10
2023-03-03T01:18:13.428Z,7.78
2023-03-03T01:20:42.117Z,7.00
2023-03-03T01:23:11.329Z,6.95
2023-03-03T01:25:40.447Z,7.95
2023-03-03T01:28:08.962Z,9.52
2023-03-03T01:30:37.289Z,6.70
2023-03-03T01:33:05.668Z,8.23
2023-03-03T01:35:36.639Z,8.57
2023-03-03T01:38:05.150Z,7.93
2023-03-03T01:40:34.095Z,8.13
2023-03-03T01:43:04.907Z,7.85
2023-03-03T01:45:46.145Z,8.85
2023-03-03T01:48:19.583Z,7.60
2023-03-03T01:50:53.157Z,7.70
2023-03-03T01:53:24.694Z,6.70
2023-03-03T01:55:54.381Z,8.35
2023-03-03T01:58:26.719Z,8.02
2023-03-03T02:01:00.721Z,7.63
2023-03-03T02:03:29.230Z,7.32
2023-03-03T02:06:02.356Z,9.43
2023-03-03T02:08:38.140Z,7.85
2023-03-03T02:11:07.836Z,6.90
2023-03-03T02:13:36.151Z,6.65
2023-03-03T02:16:04.445Z,5.95
2023-03-03T02:18:33.198Z,7.03
2023-03-03T02:21:08.753Z,7.72
2023-03-03T02:23:47.104Z,6.43
2023-03-03T02:26:19.160Z,6.15
2023-03-03T02:28:47.473Z,7.18
2023-03-03T02:31:18.349Z,6.18
2023-03-03T02:33:48.340Z,6.20
2023-03-03T02:36:18.618Z,6.80
2023-03-03T02:38:53.758Z,8.65
2023-03-03T02:41:32.012Z,9.43
2023-03-03T02:44:03.098Z,9.95
2023-03-03T02:46:35.855Z,11.27
2023-03-03T02:49:05.497Z,9.23
2023-03-03T02:51:34.283Z,10.63
2023-03-03T02:54:03.684Z,9.00
2023-03-03T02:56:35.185Z,8.60
2023-03-03T02:59:03.804Z,8.43
2023-03-03T03:01:37.276Z,9.02
2023-03-03T03:04:10.270Z,8.15
2023-03-03T03:06:42.042Z,9.13
2023-03-03T03:09:11.818Z,8.20
2023-03-03T03:11:41.895Z,9.07
2023-03-03T03:14:13.312Z,8.82
2023-03-03T03:16:42.555Z,8.70
2023-03-03T03:19:11.119Z,10.82
2023-03-03T03:21:40.431Z,8.18
2023-03-03T03:24:09.890Z,10.23
2023-03-03T03:26:42.433Z,10.00
2023-03-03T03:29:11.336Z,6.70
2023-03-03T03:31:40.434Z,9.57
2023-03-03T03:34:09.158Z,7.85
2023-03-03T03:36:39.922Z,8.80
2023-03-03T03:39:09.101Z,9.00
2023-03-03T03:41:42.753Z,7.22
2023-03-03T03:44:11.106Z,7.88
2023-03-03T03:46:39.628Z,12.95
2023-03-03T03:49:08.328Z,9.40
2023-03-03T03:51:41.317Z,8.55
2023-03-03T03:54:11.140Z,11.27
2023-03-03T03:56:40.436Z,10.65
2023-03-03T03:59:10.748Z,11.00
2023-03-03T04:01:39.939Z,15.35
2023-03-03T04:04:08.326Z,11.43
2023-03-03T04:06:36.853Z,11.73
2023-03-03T04:09:07.097Z,11.98
2023-03-03T04:11:35.576Z,10.77
2023-03-03T04:14:05.966Z,12.25
2023-03-03T04:16:37.103Z,16.85
2023-03-03T04:19:05.613Z,14.90
2023-03-03T04:21:35.985Z,13.13
2023-03-03T04:24:04.659Z,13.90
2023-03-03T04:26:33.520Z,16.55
2023-03-03T04:29:04.308Z,13.50
2023-03-03T04:31:33.033Z,18.02
2023-03-03T04:34:03.573Z,13.23
2023-03-03T04:36:32.710Z,18.13
2023-03-03T04:39:01.430Z,17.23
2023-03-03T04:41:29.884Z,15.52
2023-03-03T04:43:58.204Z,18.83
2023-03-03T04:46:26.749Z,16.10
2023-03-03T04:48:55.541Z,14.13
2023-03-03T04:51:25.763Z,13.90
2023-03-03T04:53:54.093Z,15.65
2023-03-03T04:56:23.087Z,18.77
2023-03-03T04:58:52.011Z,14.82
2023-03-03T05:01:20.635Z,21.05
2023-03-03T05:03:49.066Z,15.15
2023-03-03T05:06:18.860Z,17.30
2023-03-03T05:08:48.544Z,19.90
2023-03-03T05:11:16.898Z,17.65
2023-03-03T05:13:46.084Z,19.58
2023-03-03T05:16:15.985Z,19.48
2023-03-03T05:18:45.626Z,19.38
2023-03-03T05:21:13.891Z,18.13
2023-03-03T05:23:42.368Z,22.48
2023-03-03T05:26:12.008Z,19.17
2023-03-03T05:28:40.230Z,22.05
2023-03-03T05:31:08.563Z,24.73
2023-03-03T05:33:36.840Z,19.23
2023-03-03T05:36:05.777Z,22.48
2023-03-03T05:38:34.115Z,21.95
2023-03-03T05:41:02.491Z,24.73
2023-03-03T05:43:32.134Z,22.27
2023-03-03T05:46:01.050Z,24.08
2023-03-03T05:48:29.717Z,21.70
2023-03-03T05:51:00.140Z,21.48
2023-03-03T05:53:28.408Z,21.33
2023-03-03T05:55:56.759Z,20.30
2023-03-03T05:58:25.228Z,22.65
2023-03-03T06:00:54.941Z,21.75
2023-03-03T06:03:23.514Z,20.80
2023-03-03T06:05:51.866Z,20.75
2023-03-03T06:08:20.069Z,17.75
2023-03-03T06:10:48.512Z,20.27
2023-03-03T06:13:17.718Z,23.30
2023-03-03T06:15:46.137Z,20.02
2023-03-03T06:18:15.870Z,19.30
2023-03-03T06:20:44.239Z,16.42
2023-03-03T06:23:12.580Z,20.05
2023-03-03T06:25:41.036Z,21.42
2023-03-03T06:28:09.835Z,17.85
2023-03-03T06:30:38.178Z,21.67
2023-03-03T06:33:06.450Z,15.60
2023-03-03T06:35:36.547Z,18.40
2023-03-03T06:38:04.919Z,18.10
2023-03-03T06:40:33.252Z,19.33
2023-03-03T06:43:03.270Z,21.02
2023-03-03T06:45:31.534Z,17.08
2023-03-03T06:47:59.878Z,22.40
2023-03-03T06:50:28.206Z,18.90
2023-03-03T06:53:06.483Z,16.73
2023-03-03T06:55:34.938Z,15.57
2023-03-03T06:58:03.342Z,17.42
2023-03-03T07:00:31.964Z,17.60
2023-03-03T07:03:07.221Z,20.20
2023-03-03T07:05:35.572Z,21.45
2023-03-03T07:08:07.670Z,19.73
2023-03-03T07:10:36.038Z,20.65
2023-03-03T07:13:19.216Z,17.90
2023-03-03T07:15:49.222Z,21.83
2023-03-03T07:18:32.702Z,17.48
2023-03-03T07:21:04.209Z,16.25
2023-03-03T07:23:42.904Z,16.75
2023-03-03T07:26:14.441Z,17.45
2023-03-03T07:28:44.684Z,19.42
2023-03-03T07:31:27.793Z,17.38
2023-03-03T07:33:57.028Z,21.45
2023-03-03T07:36:29.588Z,20.65
2023-03-03T07:39:02.413Z,22.98
2023-03-03T07:41:33.087Z,19.48
2023-03-03T07:44:07.148Z,19.00
2023-03-03T07:46:42.854Z,23.25
2023-03-03T07:49:23.092Z,19.35
2023-03-03T07:51:57.445Z,18.35
2023-03-03T07:54:36.167Z,18.67
2023-03-03T07:57:16.142Z,18.17
2023-03-03T07:59:49.228Z,20.92
2023-03-03T08:02:52.412Z,16.23
2023-03-03T08:05:29.190Z,25.40
2023-03-03T08:08:05.336Z,19.27
2023-03-03T08:10:44.308Z,24.48
2023-03-03T08:13:19.873Z,23.25
2023-03-03T08:15:51.015Z,21.67
2023-03-03T08:18:24.735Z,19.60
2023-03-03T08:20:57.859Z,23.15
2023-03-03T08:23:26.234Z,18.73
2023-03-03T08:25:56.173Z,17.50
2023-03-03T08:28:24.627Z,21.95
2023-03-03T08:31:05.620Z,20.63
2023-03-03T08:33:37.540Z,20.95
2023-03-03T08:36:07.598Z,18.58
2023-03-03T08:38:36.354Z,18.83
2023-03-03T08:41:06.265Z,18.30
2023-03-03T08:43:34.798Z,18.45
2023-03-03T08:46:05.424Z,18.02
2023-03-03T08:48:35.358Z,14.32
2023-03-03T08:51:03.798Z,18.25
2023-03-03T08:53:34.302Z,19.48
2023-03-03T08:56:02.594Z,17.95
2023-03-03T08:58:35.475Z,19.33
2023-03-03T09:01:05.036Z,17.83
2023-03-03T09:03:33.508Z,21.15
2023-03-03T09:06:01.713Z,15.82
2023-03-03T09:08:30.088Z,18.70
2023-03-03T09:10:58.331Z,16.33
2023-03-03T09:13:27.390Z,19.60
2023-03-03T09:15:58.080Z,14.25
2023-03-03T09:18:33.274Z,15.15
2023-03-03T09:21:01.497Z,16.13
2023-03-03T09:23:34.908Z,16.52
2023-03-03T09:26:41.955Z,14.02
2023-03-03T09:29:24.811Z,14.30
2023-03-03T09:31:56.157Z,13.02
2023-03-03T09:34:28.214Z,18.33
2023-03-03T09:36:57.457Z,20.25
2023-03-03T09:39:27.102Z,17.35
2023-03-03T09:42:19.908Z,15.05
2023-03-03T09:45:27.257Z,22.55
2023-03-03T09:48:13.294Z,18.30
2023-03-03T09:50:50.423Z,15.75
2023-03-03T09:53:34.664Z,16.20
2023-03-03T09:56:10.394Z,16.88
2023-03-03T09:58:53.959Z,17.83
2023-03-03T10:01:42.056Z,21.75
2023-03-03T10:04:30.436Z,20.38
2023-03-03T10:07:14.781Z,18.38
2023-03-03T10:09:56.848Z,17.85
2023-03-03T10:12:30.275Z,16.70
2023-03-03T10:15:22.554Z,16.48
2023-03-03T10:17:53.249Z,18.23
2023-03-03T10:20:49.044Z,16.40
2023-03-03T10:23:26.066Z,14.68
2023-03-03T10:26:08.436Z,16.33
2023-03-03T10:29:03.808Z,15.00
2023-03-03T10:31:48.638Z,15.52
2023-03-03T10:34:30.366Z,16.30
2023-03-03T10:37:12.329Z,16.50
2023-03-03T10:40:02.276Z,15.05
2023-03-03T10:43:06.353Z,14.32
2023-03-03T10:45:56.620Z,16.42
2023-03-03T10:48:40.020Z,14.07
2023-03-03T10:51:20.066Z,15.20
2023-03-03T10:54:04.120Z,16.83
2023-03-03T10:56:52.918Z,15.05
2023-03-03T10:59:42.700Z,20.27
2023-03-03T11:02:19.848Z,14.80
2023-03-03T11:05:10.981Z,18.48
2023-03-03T11:07:44.734Z,14.57
2023-03-03T11:10:29.474Z,17.35
2023-03-03T11:13:11.185Z,14.15
2023-03-03T11:15:55.612Z,15.40
2023-03-03T11:18:34.935Z,18.10
2023-03-03T11:21:13.590Z,19.75
2023-03-03T11:23:58.569Z,22.48
2023-03-03T11:26:43.139Z,20.25
2023-03-03T11:29:26.035Z,20.23
2023-03-03T11:31:58.187Z,20.90
2023-03-03T11:34:47.187Z,21.15
2023-03-03T11:37:21.122Z,19.88
2023-03-03T11:39:51.595Z,18.05
2023-03-03T11:42:27.615Z,20.05
2023-03-03T11:45:01.257Z,20.17
2023-03-03T11:47:35.615Z,21.20
2023-03-03T11:50:09.627Z,22.30
2023-03-03T11:52:48.838Z,24.23
2023-03-03T11:55:23.718Z,22.38
2023-03-03T11:58:02.339Z,26.23
2023-03-03T12:00:38.562Z,23.15
2023-03-03T12:03:21.596Z,25.05
2023-03-03T12:06:03.089Z,20.65
2023-03-03T12:08:46.587Z,24.10
2023-03-03T12:11:23.203Z,21.17
2023-03-03T12:13:58.511Z,19.48
2023-03-03T12:16:40.721Z,23.48
2023-03-03T12:19:22.304Z,20.25
2023-03-03T12:22:21.428Z,21.83
2023-03-03T12:25:06.121Z,19.90
2023-03-03T12:27:42.356Z,18.42
2023-03-03T12:30:22.966Z,18.10
2023-03-03T12:33:11.875Z,20.13
2023-03-03T12:35:50.519Z,15.30
2023-03-03T12:38:29.760Z,15.60
2023-03-03T12:41:06.123Z,16.27
2023-03-03T12:43:50.727Z,12.40
2023-03-03T12:46:29.368Z,13.43
2023-03-03T12:48:57.857Z,13.38
2023-03-03T12:51:51.976Z,16.58
2023-03-03T12:54:43.777Z,13.77
2023-03-03T12:57:21.590Z,13.10
2023-03-03T13:00:06.351Z,12.27
2023-03-03T13:02:44.506Z,21.15
2023-03-03T13:05:22.978Z,16.60
2023-03-03T13:08:06.382Z,17.63
2023-03-03T13:10:40.621Z,17.50
2023-03-03T13:13:15.282Z,19.52
2023-03-03T13:15:55.931Z,15.60
2023-03-03T13:18:46.263Z,15.52
2023-03-03T13:21:21.952Z,13.70
2023-03-03T13:23:56.206Z,13.98
2023-03-03T13:26:31.733Z,13.57
2023-03-03T13:29:09.422Z,15.77
2023-03-03T13:31:41.432Z,14.90
2023-03-03T13:34:21.450Z,14.98
2023-03-03T13:36:54.522Z,16.15
2023-03-03T13:39:27.490Z,15.95
2023-03-03T13:42:02.787Z,14.95
2023-03-03T13:44:36.225Z,15.68
2023-03-03T13:47:15.211Z,16.40
2023-03-03T13:50:01.807Z,17.67
2023-03-03T13:52:33.967Z,14.45
2023-03-03T13:55:15.193Z,19.73
2023-03-03T13:57:59.279Z,17.13
2023-03-03T14:00:38.278Z,14.10
2023-03-03T14:03:39.227Z,14.60
2023-03-03T14:06:15.180Z,15.55
2023-03-03T14:09:01.937Z,21.80
2023-03-03T14:11:37.135Z,15.85
2023-03-03T14:14:14.856Z,14.13
2023-03-03T14:16:52.007Z,14.73
2023-03-03T14:19:26.222Z,11.63
2023-03-03T14:22:23.578Z,10.15
2023-03-03T14:25:01.762Z,13.13
2023-03-03T14:27:36.443Z,10.98
2023-03-03T14:30:28.976Z,11.90
2023-03-03T14:33:16.588Z,11.35
2023-03-03T14:35:51.666Z,18.67
2023-03-03T14:38:24.851Z,12.68
2023-03-03T14:41:14.111Z,12.70
2023-03-03T14:43:44.234Z,10.80
2023-03-03T14:46:38.098Z,15.43
2023-03-03T14:49:08.458Z,12.40
2023-03-03T14:51:43.158Z,11.77
2023-03-03T14:54:25.862Z,13.75
2023-03-03T14:57:01.161Z,16.88
2023-03-03T14:59:29.825Z,25.17
2023-03-03T15:02:36.692Z,18.73
2023-03-03T15:05:18.880Z,16.08
2023-03-03T15:07:49.197Z,18.08
2023-03-03T15:10:31.418Z,28.50
2023-03-03T15:13:00.273Z,28.20
2023-03-03T15:15:29.926Z,29.77
2023-03-03T15:18:02.689Z,16.50
2023-03-03T15:20:42.081Z,14.25
2023-03-03T15:23:23.929Z,14.18
2023-03-03T15:26:00.670Z,11.38
2023-03-03T15:28:37.800Z,11.93
2023-03-03T15:31:19.261Z,42.95
2023-03-03T15:33:57.735Z,43.83
2023-03-03T15:36:32.621Z,56.00
2023-03-03T15:39:11.309Z,17.10
2023-03-03T15:41:45.934Z,19.83
2023-03-03T15:44:19.794Z,11.60
2023-03-03T15:47:06.479Z,12.10
2023-03-03T15:50:08.961Z,12.88
2023-03-03T15:52:50.435Z,16.20
2023-03-03T15:55:35.177Z,15.88
2023-03-03T15:58:25.066Z,20.10
2023-03-03T16:01:04.758Z,13.88
2023-03-03T16:03:37.557Z,12.73
2023-03-03T16:06:12.236Z,15.82
2023-03-03T16:08:50.546Z,15.35
2023-03-03T16:11:27.391Z,12.00
2023-03-03T16:14:13.514Z,15.77
2023-03-03T16:16:50.408Z,19.85
2023-03-03T16:19:37.510Z,12.27
2023-03-03T16:22:46.148Z,13.25
2023-03-03T16:25:43.696Z,23.70
2023-03-03T16:28:16.926Z,15.88
2023-03-03T16:30:55.363Z,17.38
2023-03-03T16:33:33.923Z,18.08
2023-03-03T16:36:08.205Z,16.95
2023-03-03T16:38:40.454Z,15.10
2023-03-03T16:41:15.617Z,16.42
2023-03-03T16:44:03.824Z,15.07
2023-03-03T16:46:40.512Z,24.13
2023-03-03T16:49:16.223Z,16.80
2023-03-03T16:51:50.548Z,14.63
2023-03-03T16:54:30.832Z,16.23
2023-03-03T16:57:07.424Z,12.50
2023-03-03T16:59:55.736Z,15.02
2023-03-03T17:03:08.980Z,14.20
2023-03-03T17:05:45.646Z,12.90
2023-03-03T17:08:42.606Z,13.15
2023-03-03T17:11:21.616Z,13.88
2023-03-03T17:14:05.800Z,14.20
2023-03-03T17:16:51.982Z,17.02
2023-03-03T17:19:33.620Z,17.40
2023-03-03T17:22:19.308Z,19.40
2023-03-03T17:25:01.529Z,23.75
2023-03-03T17:27:37.973Z,19.30
2023-03-03T17:30:14.835Z,23.75
2023-03-03T17:33:06.268Z,19.25
2023-03-03T17:35:49.175Z,19.58
2023-03-03T17:38:28.260Z,19.95
2023-03-03T17:41:04.379Z,23.05
2023-03-03T17:43:42.406Z,31.20
2023-03-03T17:46:19.101Z,16.30
2023-03-03T17:49:18.226Z,14.00
2023-03-03T17:52:07.437Z,16.33
2023-03-03T17:55:04.708Z,17.27
2023-03-03T17:57:49.161Z,21.85
2023-03-03T18:00:30.906Z,29.08
2023-03-03T18:03:21.681Z,19.05
2023-03-03T18:06:08.799Z,20.55
2023-03-03T18:09:11.863Z,23.13
2023-03-03T18:11:54.653Z,18.38
2023-03-03T18:14:52.101Z,24.30
2023-03-03T18:17:36.949Z,18.55
2023-03-03T18:20:29.860Z,17.23
2023-03-03T18:22:58.661Z,18.08
2023-03-03T18:25:48.117Z,19.20
2023-03-03T18:28:24.758Z,18.50
2023-03-03T18:30:57.748Z,19.27
2023-03-03T18:33:42.146Z,16.20
2023-03-03T18:36:36.376Z,19.13
2023-03-03T18:39:06.776Z,19.40
2023-03-03T18:41:55.757Z,16.70
2023-03-03T18:44:30.538Z,15.70
2023-03-03T18:46:59.510Z,13.20
2023-03-03T18:49:55.720Z,27.83
2023-03-03T18:52:27.460Z,13.10
2023-03-03T18:55:27.137Z,23.10
2023-03-03T18:58:35.955Z,18.58
2023-03-03T19:01:42.804Z,14.38
2023-03-03T19:04:19.427Z,15.13
2023-03-03T19:07:16.554Z,13.32
2023-03-03T19:09:51.435Z,15.15
2023-03-03T19:12:20.569Z,9.73
2023-03-03T19:14:49.908Z,22.30
2023-03-03T19:17:49.603Z,12.15
2023-03-03T19:20:18.982Z,14.38
2023-03-03T19:22:49.447Z,13.20
2023-03-03T19:25:22.769Z,10.43
2023-03-03T19:28:05.391Z,8.82
2023-03-03T19:30:56.383Z,13.57
2023-03-03T19:33:52.231Z,13.15
2023-03-03T19:36:48.704Z,8.55
2023-03-03T19:39:48.703Z,18.83
2023-03-03T19:42:29.310Z,16.98
2023-03-03T19:45:12.883Z,8.90
2023-03-03T19:47:47.921Z,7.90
2023-03-03T19:50:36.898Z,11.57
2023-03-03T19:53:14.413Z,13.65
2023-03-03T19:55:58.599Z,12.70
2023-03-03T19:58:37.260Z,13.38
2023-03-03T20:01:15.386Z,8.98
2023-03-03T20:04:00.895Z,10.48
2023-03-03T20:06:53.499Z,9.95
2023-03-03T20:09:33.089Z,10.55
2023-03-03T20:12:18.476Z,10.00
2023-03-03T20:14:54.247Z,11.70
2023-03-03T20:17:38.116Z,11.85
2023-03-03T20:20:16.463Z,9.73
2023-03-03T20:22:57.915Z,12.85
2023-03-03T20:25:31.486Z,9.15
2023-03-03T20:28:07.102Z,10.93
2023-03-03T20:30:57.941Z,12.40
2023-03-03T20:33:44.100Z,14.38
2023-03-03T20:36:21.266Z,8.70
2023-03-03T20:39:02.124Z,10.52
2023-03-03T20:41:46.423Z,10.35
2023-03-03T20:44:24.612Z,11.45
2023-03-03T20:47:01.399Z,9.45
2023-03-03T20:49:42.263Z,9.70
2023-03-03T20:52:19.122Z,10.48
2023-03-03T20:54:56.417Z,10.07
2023-03-03T20:57:34.866Z,13.05
2023-03-03T21:00:07.909Z,10.57
2023-03-03T21:02:43.696Z,10.70
2023-03-03T21:05:15.684Z,10.70
2023-03-03T21:07:55.527Z,15.18
2023-03-03T21:10:28.071Z,15.68
2023-03-03T21:12:58.212Z,15.45
2023-03-03T21:15:30.290Z,16.00
2023-03-03T21:17:59.886Z,13.85
2023-03-03T21:20:31.716Z,14.50
2023-03-03T21:23:02.305Z,14.00
2023-03-03T21:25:55.476Z,20.27
2023-03-03T21:28:26.293Z,13.55
2023-03-03T21:31:15.578Z,16.38
2023-03-03T21:33:58.540Z,28.30
2023-03-03T21:36:46.758Z,19.83
2023-03-03T21:39:23.705Z,26.02
2023-03-03T21:41:56.107Z,16.63
2023-03-03T21:44:41.342Z,17.52
2023-03-03T21:47:11.971Z,17.13
2023-03-03T21:49:42.366Z,16.80
2023-03-03T21:52:11.348Z,16.30
2023-03-03T21:54:39.640Z,11.82
2023-03-03T21:57:09.934Z,14.23
2023-03-03T21:59:38.200Z,19.60
2023-03-03T22:02:07.456Z,16.55
2023-03-03T22:04:38.456Z,20.83
2023-03-03T22:07:06.866Z,11.38
2023-03-03T22:09:35.503Z,13.77
2023-03-03T22:12:04.282Z,19.35
2023-03-03T22:14:34.050Z,14.60
2023-03-03T22:17:02.457Z,18.05
2023-03-03T22:19:30.716Z,16.40
2023-03-03T22:21:59.044Z,18.65
2023-03-03T22:24:27.305Z,15.07
2023-03-03T22:26:55.656Z,22.10
2023-03-03T22:29:24.197Z,15.32
2023-03-03T22:31:53.833Z,15.40
2023-03-03T22:34:22.369Z,14.27
2023-03-03T22:36:50.602Z,18.98
2023-03-03T22:39:18.835Z,15.93
2023-03-03T22:41:47.114Z,16.70
2023-03-03T22:44:15.300Z,17.92
2023-03-03T22:46:43.574Z,17.80
2023-03-03T22:49:13.236Z,18.30
2023-03-03T22:51:41.515Z,15.45
2023-03-03T22:54:09.839Z,15.80
2023-03-03T22:56:38.087Z,17.10
2023-03-03T22:59:06.300Z,17.80
2023-03-03T23:01:34.658Z,24.48
2023-03-03T23:04:03.353Z,17.40
2023-03-03T23:06:33.028Z,17.27
2023-03-03T23:09:01.239Z,24.85
2023-03-03T23:11:29.494Z,22.75
2023-03-03T23:13:57.718Z,19.65
2023-03-03T23:16:26.138Z,23.08
2023-03-03T23:18:54.341Z,19.92
2023-03-03T23:21:22.622Z,17.00
2023-03-03T23:23:52.340Z,14.82
2023-03-03T23:26:20.737Z,13.00
2023-03-03T23:28:49.005Z,13.48
2023-03-03T23:31:17.299Z,15.48
2023-03-03T23:33:45.592Z,13.95
2023-03-03T23:36:14.082Z,13.05
2023-03-03T23:38:43.269Z,18.58
2023-03-03T23:41:12.956Z,12.52
2023-03-03T23:43:41.252Z,15.15
2023-03-03T23:46:09.930Z,15.98
2023-03-03T23:48:38.240Z,18.17
2023-03-03T23:51:06.844Z,18.77
2023-03-03T23:53:35.094Z,21.55
2023-03-03T23:56:03.403Z,16.52
2023-03-03T23:58:33.039Z,17.20
